createdAt,value
2022-12-14T00:02:18.317Z,70.40
2022-12-14T00:04:46.480Z,70.70
2022-12-14T00:07:15.999Z,70.60
2022-12-14T00:09:44.159Z,71.50
2022-12-14T00:12:12.348Z,70.80
2022-12-14T00:14:40.740Z,70.90
2022-12-14T00:17:09.603Z,70.60
2022-12-14T00:19:38.304Z,69.80
2022-12-14T00:22:06.453Z,69.80
2022-12-14T00:24:36.073Z,70.00
2022-12-14T00:27:04.196Z,69.80
2022-12-14T00:29:32.322Z,69.70
2022-12-14T00:32:00.497Z,69.20
2022-12-14T00:34:28.874Z,69.50
2022-12-14T00:36:57.121Z,69.10
2022-12-14T00:39:25.301Z,69.80
2022-12-14T00:41:54.967Z,70.00
2022-12-14T00:44:23.124Z,69.80
2022-12-14T00:46:51.349Z,69.90
2022-12-14T00:49:19.649Z,70.00
2022-12-14T00:51:47.949Z,69.90
2022-12-14T00:54:16.155Z,70.10
2022-12-14T00:56:44.336Z,70.30
2022-12-14T00:59:20.758Z,70.50
2022-12-14T01:01:52.446Z,70.80
2022-12-14T01:04:24.560Z,71.00
2022-12-14T01:06:54.111Z,71.00
2022-12-14T01:09:24.801Z,70.80
2022-12-14T01:11:53.206Z,70.90
2022-12-14T01:14:23.053Z,70.40
2022-12-14T01:16:51.182Z,70.50
2022-12-14T01:19:19.282Z,70.50
2022-12-14T01:21:49.582Z,70.20
2022-12-14T01:24:17.878Z,70.30
2022-12-14T01:26:48.209Z,70.30
2022-12-14T01:29:17.093Z,70.40
2022-12-14T01:31:48.555Z,69.80
2022-12-14T01:34:17.322Z,69.90
2022-12-14T01:36:45.500Z,69.90
2022-12-14T01:39:15.410Z,69.50
2022-12-14T01:41:45.332Z,69.40
2022-12-14T01:44:51.301Z,68.80
2022-12-14T01:47:25.544Z,68.70
2022-12-14T01:49:57.783Z,68.90
2022-12-14T01:52:31.180Z,68.90
2022-12-14T01:55:02.995Z,69.80
2022-12-14T01:57:36.423Z,68.80
2022-12-14T02:00:08.623Z,68.60
2022-12-14T02:02:39.844Z,68.50
2022-12-14T02:05:10.962Z,68.50
2022-12-14T02:07:40.519Z,68.60
2022-12-14T02:10:10.305Z,68.50
2022-12-14T02:12:42.845Z,68.20
2022-12-14T02:15:13.478Z,68.60
2022-12-14T02:17:44.908Z,68.50
2022-12-14T02:20:16.226Z,68.50
2022-12-14T02:23:32.535Z,68.10
2022-12-14T02:26:52.151Z,68.00
2022-12-14T02:29:49.704Z,67.90
2022-12-14T02:32:42.248Z,67.50
2022-12-14T02:35:19.864Z,67.10
2022-12-14T02:37:58.978Z,67.40
2022-12-14T02:40:34.465Z,67.10
2022-12-14T02:43:13.923Z,67.50
2022-12-14T02:45:47.860Z,67.50
2022-12-14T02:48:19.478Z,67.40
2022-12-14T02:50:57.294Z,67.30
2022-12-14T02:53:30.825Z,67.70
2022-12-14T02:56:03.256Z,67.80
2022-12-14T02:58:36.991Z,67.50
2022-12-14T03:01:09.421Z,67.40
2022-12-14T03:03:37.584Z,67.60
2022-12-14T03:06:15.011Z,67.90
2022-12-14T03:08:47.366Z,68.00
2022-12-14T03:11:22.041Z,67.90
2022-12-14T03:13:55.062Z,67.90
2022-12-14T03:16:28.347Z,68.10
2022-12-14T03:19:00.111Z,68.10
2022-12-14T03:21:31.963Z,67.80
2022-12-14T03:24:03.437Z,67.80
2022-12-14T03:26:35.997Z,67.80
2022-12-14T03:29:09.505Z,67.80
2022-12-14T03:31:48.903Z,67.80
2022-12-14T03:34:22.151Z,67.70
2022-12-14T03:36:55.473Z,67.70
2022-12-14T03:39:28.557Z,67.50
2022-12-14T03:42:03.775Z,67.20
2022-12-14T03:44:49.113Z,67.40
2022-12-14T03:47:31.840Z,67.20
2022-12-14T03:50:04.540Z,67.50
2022-12-14T03:52:38.785Z,67.40
2022-12-14T03:55:21.465Z,67.40
2022-12-14T03:58:06.879Z,67.50
2022-12-14T04:00:42.318Z,67.50
2022-12-14T04:03:22.804Z,67.50
2022-12-14T04:05:56.057Z,67.60
2022-12-14T04:08:41.691Z,67.60
2022-12-14T04:11:30.920Z,67.40
2022-12-14T04:14:24.171Z,67.60
2022-12-14T04:17:11.218Z,67.80
2022-12-14T04:19:45.069Z,68.00
2022-12-14T04:22:20.593Z,67.80
2022-12-14T04:25:13.388Z,67.70
2022-12-14T04:27:46.003Z,67.70
2022-12-14T04:30:14.617Z,67.80
2022-12-14T04:32:47.511Z,67.50
2022-12-14T04:35:22.274Z,67.70
2022-12-14T04:37:53.772Z,67.70
2022-12-14T04:40:25.674Z,67.10
2022-12-14T04:42:59.197Z,67.00
2022-12-14T04:45:33.490Z,66.90
2022-12-14T04:48:09.023Z,66.70
2022-12-14T04:50:43.664Z,66.40
2022-12-14T04:53:14.188Z,66.10
2022-12-14T04:55:49.935Z,66.30
2022-12-14T04:58:21.071Z,66.30
2022-12-14T05:01:02.905Z,66.50
2022-12-14T05:03:34.234Z,66.50
2022-12-14T05:06:16.154Z,66.70
2022-12-14T05:09:01.152Z,67.00
2022-12-14T05:14:25.882Z,66.90
2022-12-14T05:16:54.144Z,67.20
2022-12-14T05:19:26.327Z,67.40
2022-12-14T05:21:56.536Z,67.10
2022-12-14T05:24:24.796Z,66.50
2022-12-14T05:26:53.008Z,66.60
2022-12-14T05:29:21.228Z,65.80
2022-12-14T05:31:49.915Z,66.20
2022-12-14T05:34:18.463Z,66.80
2022-12-14T05:36:48.866Z,67.40
2022-12-14T05:39:18.467Z,67.60
2022-12-14T05:41:46.686Z,68.00
2022-12-14T05:44:14.898Z,68.00
2022-12-14T05:46:42.978Z,68.00
2022-12-14T05:49:13.748Z,67.70
2022-12-14T05:51:42.031Z,67.70
2022-12-14T05:54:10.345Z,67.50
2022-12-14T05:56:39.821Z,67.40
2022-12-14T05:59:07.965Z,67.10
2022-12-14T06:01:36.227Z,66.40
2022-12-14T06:04:04.835Z,66.10
2022-12-14T06:06:34.625Z,65.60
2022-12-14T06:09:02.797Z,65.30
2022-12-14T06:11:33.253Z,66.10
2022-12-14T06:14:02.727Z,65.80
2022-12-14T06:16:30.846Z,65.40
2022-12-14T06:19:00.952Z,64.90
2022-12-14T06:21:30.916Z,64.60
2022-12-14T06:23:59.722Z,65.40
2022-12-14T06:26:29.595Z,63.80
2022-12-14T06:28:58.897Z,64.70
2022-12-14T06:31:30.214Z,63.90
2022-12-14T06:34:00.367Z,63.10
2022-12-14T06:36:33.307Z,62.70
2022-12-14T06:39:06.649Z,62.30
2022-12-14T06:41:35.578Z,62.70
2022-12-14T06:44:07.123Z,62.80
2022-12-14T06:46:37.845Z,63.10
2022-12-14T06:49:07.255Z,63.20
2022-12-14T06:51:40.679Z,63.10
2022-12-14T06:54:10.529Z,63.40
2022-12-14T06:56:39.383Z,63.40
2022-12-14T06:59:09.305Z,63.60
2022-12-14T07:01:40.068Z,63.20
2022-12-14T07:04:09.339Z,62.90
2022-12-14T07:06:39.982Z,63.00
2022-12-14T07:09:09.686Z,63.20
2022-12-14T07:11:37.988Z,63.00
2022-12-14T07:14:10.653Z,62.90
2022-12-14T07:16:42.608Z,62.80
2022-12-14T07:19:12.280Z,63.00
2022-12-14T07:21:40.363Z,62.70
2022-12-14T07:24:09.787Z,62.90
2022-12-14T07:26:38.094Z,62.80
2022-12-14T07:29:06.682Z,62.70
2022-12-14T07:31:34.846Z,62.60
2022-12-14T07:34:04.335Z,62.30
2022-12-14T07:36:32.944Z,62.20
2022-12-14T07:39:01.124Z,62.50
2022-12-14T07:41:31.600Z,62.20
2022-12-14T07:44:01.196Z,61.50
2022-12-14T07:46:32.259Z,60.90
2022-12-14T07:49:01.326Z,61.00
2022-12-14T07:51:33.158Z,60.80
2022-12-14T07:54:02.479Z,60.60
2022-12-14T07:56:32.637Z,60.60
2022-12-14T07:59:02.101Z,60.70
2022-12-14T08:01:36.073Z,60.60
2022-12-14T08:04:07.475Z,61.10
2022-12-14T08:06:38.078Z,60.30
2022-12-14T08:09:07.469Z,60.00
2022-12-14T08:11:35.814Z,60.00
2022-12-14T08:14:05.533Z,60.00
2022-12-14T08:16:35.985Z,59.30
2022-12-14T08:19:04.793Z,59.80
2022-12-14T08:21:33.124Z,59.60
2022-12-14T08:24:02.468Z,59.50
2022-12-14T08:26:35.425Z,59.40
2022-12-14T08:29:05.147Z,59.00
2022-12-14T08:31:34.410Z,59.10
2022-12-14T08:34:05.386Z,59.10
2022-12-14T08:36:35.528Z,59.00
2022-12-14T08:39:07.774Z,58.70
2022-12-14T08:41:36.357Z,58.60
2022-12-14T08:44:06.085Z,58.40
2022-12-14T08:46:37.598Z,58.60
2022-12-14T08:49:05.990Z,58.70
2022-12-14T08:51:37.102Z,58.60
2022-12-14T08:54:06.781Z,58.80
2022-12-14T08:56:34.891Z,58.60
2022-12-14T08:59:03.040Z,58.40
2022-12-14T09:01:38.210Z,58.40
2022-12-14T09:04:08.530Z,58.30
2022-12-14T09:06:39.035Z,58.20
2022-12-14T09:09:16.002Z,57.90
2022-12-14T09:11:45.328Z,57.80
2022-12-14T09:14:13.582Z,58.30
2022-12-14T09:16:42.296Z,57.90
2022-12-14T09:19:10.598Z,57.70
2022-12-14T09:21:39.793Z,58.20
2022-12-14T09:24:10.823Z,58.00
2022-12-14T09:26:39.009Z,57.90
2022-12-14T09:29:07.242Z,57.80
2022-12-14T09:31:37.887Z,57.60
2022-12-14T09:34:06.078Z,57.50
2022-12-14T09:36:34.737Z,57.70
2022-12-14T09:39:03.252Z,57.00
2022-12-14T09:41:50.693Z,56.90
2022-12-14T09:44:32.710Z,56.90
2022-12-14T09:47:08.269Z,56.70
2022-12-14T09:49:42.506Z,57.10
2022-12-14T09:52:16.887Z,57.60
2022-12-14T09:54:49.816Z,58.60
2022-12-14T09:57:26.980Z,60.20
2022-12-14T09:59:55.613Z,61.00
2022-12-14T10:02:41.867Z,62.10
2022-12-14T10:05:36.086Z,62.80
2022-12-14T10:08:09.747Z,63.30
2022-12-14T10:10:47.639Z,64.70
2022-12-14T10:13:25.729Z,66.10
2022-12-14T10:16:05.824Z,67.10
2022-12-14T10:19:04.327Z,69.00
2022-12-14T10:21:44.059Z,71.20
2022-12-14T10:24:18.852Z,73.10
2022-12-14T10:26:52.644Z,74.30
2022-12-14T10:29:32.522Z,75.30
2022-12-14T10:32:08.901Z,74.90
2022-12-14T10:34:39.919Z,75.00
2022-12-14T10:37:26.999Z,75.70
2022-12-14T10:40:11.824Z,76.30
2022-12-14T10:42:49.677Z,76.50
2022-12-14T10:45:40.251Z,76.70
2022-12-14T10:48:27.043Z,77.10
2022-12-14T10:51:01.710Z,76.40
2022-12-14T10:53:40.170Z,77.00
2022-12-14T10:56:15.648Z,77.10
2022-12-14T10:58:43.784Z,77.20
2022-12-14T11:01:16.002Z,76.60
2022-12-14T11:03:55.280Z,76.00
2022-12-14T11:06:23.452Z,76.30
2022-12-14T11:08:51.583Z,75.60
2022-12-14T11:11:23.286Z,75.50
2022-12-14T11:14:07.100Z,75.10
2022-12-14T11:16:39.293Z,75.30
2022-12-14T11:19:16.997Z,74.50
2022-12-14T11:21:49.924Z,75.20
2022-12-14T11:24:29.445Z,74.00
2022-12-14T11:27:02.110Z,73.60
2022-12-14T11:29:34.065Z,73.40
2022-12-14T11:32:05.854Z,73.70
2022-12-14T11:34:38.290Z,73.70
2022-12-14T11:37:15.384Z,74.10
2022-12-14T11:39:44.138Z,74.60
2022-12-14T11:42:18.930Z,74.50
2022-12-14T11:44:50.915Z,74.30
2022-12-14T11:47:22.306Z,74.10
2022-12-14T11:49:54.282Z,75.10
2022-12-14T11:52:25.120Z,75.50
2022-12-14T11:55:11.810Z,75.70
2022-12-14T11:57:49.995Z,77.00
2022-12-14T12:00:27.539Z,76.20
2022-12-14T12:03:00.795Z,75.70
2022-12-14T12:05:32.658Z,75.50
2022-12-14T12:08:03.089Z,75.60
2022-12-14T12:10:40.300Z,76.10
2022-12-14T12:13:22.402Z,76.50
2022-12-14T12:15:54.647Z,76.20
2022-12-14T12:18:30.694Z,77.10
2022-12-14T12:21:04.336Z,76.50
2022-12-14T12:23:36.840Z,77.00
2022-12-14T12:26:12.359Z,76.70
2022-12-14T12:28:46.271Z,76.60
2022-12-14T12:31:22.151Z,76.80
2022-12-14T12:33:57.540Z,76.70
2022-12-14T12:36:25.829Z,77.20
2022-12-14T12:39:03.253Z,77.70
2022-12-14T12:41:44.574Z,78.10
2022-12-14T12:44:25.598Z,77.80
2022-12-14T12:47:24.342Z,78.30
2022-12-14T12:50:04.937Z,78.70
2022-12-14T12:52:37.313Z,77.80
2022-12-14T12:55:12.446Z,77.90
2022-12-14T12:57:44.524Z,78.60
2022-12-14T13:00:19.035Z,78.00
2022-12-14T13:02:50.944Z,78.30
2022-12-14T13:05:45.568Z,77.90
2022-12-14T13:08:23.408Z,78.50
2022-12-14T13:13:46.476Z,77.90
2022-12-14T13:16:21.572Z,78.30
2022-12-14T13:19:13.206Z,78.40
2022-12-14T13:21:51.785Z,77.80
2022-12-14T13:24:21.899Z,78.50
2022-12-14T13:27:17.190Z,78.30
2022-12-14T13:30:03.570Z,78.10
2022-12-14T13:32:47.844Z,78.50
2022-12-14T13:35:32.389Z,78.70
2022-12-14T13:38:32.649Z,78.70
2022-12-14T13:41:20.554Z,79.50
2022-12-14T13:44:36.161Z,79.90
2022-12-14T13:47:15.864Z,80.60
2022-12-14T13:50:18.454Z,79.50
2022-12-14T13:52:43.758Z,80.70
2022-12-14T13:55:28.323Z,81.10
2022-12-14T13:58:10.031Z,81.20
2022-12-14T14:00:57.418Z,81.00
2022-12-14T14:03:53.262Z,80.50
2022-12-14T14:06:37.554Z,81.00
2022-12-14T14:09:42.906Z,81.30
2022-12-14T14:12:38.457Z,80.70
2022-12-14T14:15:51.950Z,81.50
2022-12-14T14:18:31.046Z,82.00
2022-12-14T14:21:32.959Z,82.50
2022-12-14T14:24:20.154Z,82.20
2022-12-14T14:27:09.494Z,82.70
2022-12-14T14:29:45.711Z,81.40
2022-12-14T14:32:36.808Z,82.10
2022-12-14T14:35:08.149Z,81.00
2022-12-14T14:37:38.596Z,81.50
2022-12-14T14:40:33.508Z,81.40
2022-12-14T14:43:23.749Z,82.10
2022-12-14T14:45:59.122Z,83.40
2022-12-14T14:48:34.309Z,83.10
2022-12-14T14:51:06.682Z,84.10
2022-12-14T14:53:36.295Z,84.40
2022-12-14T14:56:35.470Z,84.20
2022-12-14T14:59:22.833Z,84.80
2022-12-14T15:01:56.490Z,85.20
2022-12-14T15:04:30.947Z,85.70
2022-12-14T15:07:03.525Z,85.00
2022-12-14T15:09:34.100Z,85.40
2022-12-14T15:12:06.908Z,85.40
2022-12-14T15:14:43.231Z,86.00
2022-12-14T15:17:22.890Z,86.00
2022-12-14T15:19:51.975Z,85.50
2022-12-14T15:22:22.566Z,85.50
2022-12-14T15:24:54.016Z,86.00
2022-12-14T15:27:27.314Z,85.60
2022-12-14T15:29:57.459Z,85.50
2022-12-14T15:32:27.809Z,85.30
2022-12-14T15:34:58.818Z,85.80
2022-12-14T15:37:31.018Z,86.20
2022-12-14T15:40:05.570Z,85.30
2022-12-14T15:42:33.956Z,85.70
2022-12-14T15:45:14.320Z,85.60
2022-12-14T15:47:43.848Z,85.70
2022-12-14T15:50:29.606Z,86.60
2022-12-14T15:53:08.811Z,86.20
2022-12-14T15:55:39.955Z,85.80
2022-12-14T15:58:14.961Z,86.30
2022-12-14T16:00:46.707Z,86.30
2022-12-14T16:03:24.809Z,86.60
2022-12-14T16:05:53.863Z,86.40
2022-12-14T16:08:22.969Z,86.10
2022-12-14T16:10:52.477Z,86.90
2022-12-14T16:13:24.903Z,87.30
2022-12-14T16:15:54.259Z,87.40
2022-12-14T16:18:23.936Z,87.30
2022-12-14T16:20:58.306Z,87.70
2022-12-14T16:23:31.681Z,87.70
2022-12-14T16:26:03.307Z,87.30
2022-12-14T16:28:33.825Z,88.10
2022-12-14T16:31:06.051Z,87.70
2022-12-14T16:33:37.378Z,87.80
2022-12-14T16:36:11.491Z,87.80
2022-12-14T16:38:43.461Z,88.40
2022-12-14T16:41:11.685Z,88.40
2022-12-14T16:43:42.534Z,88.10
2022-12-14T16:46:17.424Z,88.20
2022-12-14T16:49:09.478Z,88.70
2022-12-14T16:54:30.649Z,88.60
2022-12-14T16:57:02.147Z,88.40
2022-12-14T16:59:41.118Z,88.10
2022-12-14T17:02:28.019Z,87.50
2022-12-14T17:04:58.889Z,87.20
2022-12-14T17:07:29.807Z,88.40
2022-12-14T17:09:58.083Z,87.50
2022-12-14T17:12:27.587Z,87.80
2022-12-14T17:14:55.875Z,87.40
2022-12-14T17:17:30.044Z,87.30
2022-12-14T17:19:59.570Z,87.40
2022-12-14T17:22:31.652Z,88.30
2022-12-14T17:25:01.065Z,88.10
2022-12-14T17:27:30.465Z,87.50
2022-12-14T17:29:58.752Z,87.50
2022-12-14T17:32:31.283Z,87.20
2022-12-14T17:35:01.144Z,86.30
2022-12-14T17:37:36.504Z,86.10
2022-12-14T17:40:08.091Z,86.30
2022-12-14T17:42:38.615Z,86.50
2022-12-14T17:45:19.626Z,87.40
2022-12-14T17:47:47.919Z,86.60
2022-12-14T17:50:19.033Z,87.10
2022-12-14T17:52:48.089Z,86.80
2022-12-14T17:55:18.527Z,87.40
2022-12-14T17:57:46.915Z,86.10
2022-12-14T18:00:40.408Z,86.90
2022-12-14T18:03:10.841Z,87.20
2022-12-14T18:05:48.173Z,87.70
2022-12-14T18:08:16.996Z,88.50
2022-12-14T18:10:45.786Z,88.60
2022-12-14T18:13:14.511Z,89.70
2022-12-14T18:15:49.761Z,90.70
2022-12-14T18:18:19.111Z,90.50
2022-12-14T18:20:51.170Z,92.40
2022-12-14T18:23:20.084Z,92.60
2022-12-14T18:25:50.557Z,93.50
2022-12-14T18:28:19.347Z,94.10
2022-12-14T18:30:50.976Z,93.70
2022-12-14T18:33:28.895Z,93.60
2022-12-14T18:35:58.668Z,93.50
2022-12-14T18:38:28.994Z,92.30
2022-12-14T18:41:00.189Z,91.90
2022-12-14T18:43:29.765Z,91.40
2022-12-14T18:45:58.408Z,91.20
2022-12-14T18:48:26.980Z,91.90
2022-12-14T18:50:56.181Z,92.10
2022-12-14T18:53:42.219Z,91.80
2022-12-14T18:56:12.650Z,92.00
2022-12-14T18:58:46.507Z,92.40
2022-12-14T19:01:21.409Z,92.30
2022-12-14T19:03:50.501Z,92.40
2022-12-14T19:06:43.567Z,92.60
2022-12-14T19:09:13.503Z,91.80
2022-12-14T19:11:44.748Z,91.20
2022-12-14T19:14:13.485Z,90.50
2022-12-14T19:16:42.868Z,90.10
2022-12-14T19:19:10.983Z,89.50
2022-12-14T19:21:39.245Z,90.10
2022-12-14T19:24:14.435Z,90.10
2022-12-14T19:26:42.953Z,90.50
2022-12-14T19:29:11.412Z,90.10
2022-12-14T19:31:41.874Z,90.60
2022-12-14T19:34:13.178Z,90.80
2022-12-14T19:36:50.974Z,90.30
2022-12-14T19:39:20.493Z,90.40
2022-12-14T19:41:49.657Z,88.90
2022-12-14T19:44:17.962Z,89.50
2022-12-14T19:46:55.586Z,91.10
2022-12-14T19:49:39.305Z,91.50
2022-12-14T19:52:07.960Z,91.10
2022-12-14T19:54:39.862Z,91.70
2022-12-14T19:57:08.837Z,91.80
2022-12-14T19:59:40.126Z,90.90
2022-12-14T20:02:17.208Z,91.10
2022-12-14T20:04:45.434Z,92.10
2022-12-14T20:07:14.329Z,91.60
2022-12-14T20:09:43.878Z,92.60
2022-12-14T20:12:12.733Z,92.70
2022-12-14T20:14:50.118Z,92.70
2022-12-14T20:17:18.433Z,93.00
2022-12-14T20:19:47.729Z,93.00
2022-12-14T20:22:15.942Z,93.20
2022-12-14T20:24:47.120Z,93.60
2022-12-14T20:27:15.831Z,93.80
2022-12-14T20:29:44.475Z,93.30
2022-12-14T20:32:12.946Z,93.00
2022-12-14T20:34:42.630Z,92.20
2022-12-14T20:37:10.930Z,92.40
2022-12-14T20:39:39.064Z,91.90
2022-12-14T20:42:09.101Z,92.10
2022-12-14T20:44:37.469Z,92.50
2022-12-14T20:47:05.714Z,92.10
2022-12-14T20:49:33.978Z,92.30
2022-12-14T20:52:02.216Z,92.20
2022-12-14T20:54:30.443Z,92.00
2022-12-14T20:56:58.635Z,91.90
2022-12-14T20:59:28.182Z,92.40
2022-12-14T21:01:57.020Z,91.70
2022-12-14T21:04:26.429Z,91.90
2022-12-14T21:06:55.026Z,90.30
2022-12-14T21:09:23.370Z,91.30
2022-12-14T21:12:09.951Z,91.40
2022-12-14T21:14:42.543Z,91.60
2022-12-14T21:17:12.575Z,91.70
2022-12-14T21:19:41.710Z,91.20
2022-12-14T21:22:16.064Z,91.40
2022-12-14T21:25:04.641Z,91.20
2022-12-14T21:27:34.680Z,91.20
2022-12-14T21:30:08.760Z,91.90
2022-12-14T21:32:37.710Z,91.70
2022-12-14T21:35:06.962Z,91.20
2022-12-14T21:37:35.348Z,90.60
2022-12-14T21:40:03.902Z,90.90
2022-12-14T21:42:31.150Z,88.80
2022-12-14T21:44:59.348Z,89.90
2022-12-14T21:47:30.506Z,91.10
2022-12-14T21:49:58.866Z,92.00
2022-12-14T21:52:28.932Z,91.80
2022-12-14T21:54:58.916Z,91.00
2022-12-14T21:57:49.845Z,90.70
2022-12-14T22:00:21.626Z,91.10
2022-12-14T22:02:53.493Z,91.20
2022-12-14T22:05:21.713Z,90.30
2022-12-14T22:07:49.803Z,91.40
2022-12-14T22:10:22.991Z,90.70
2022-12-14T22:12:53.189Z,90.90
2022-12-14T22:15:21.416Z,90.70
2022-12-14T22:17:50.669Z,90.60
2022-12-14T22:20:20.352Z,89.70
2022-12-14T22:23:00.846Z,90.00
2022-12-14T22:25:32.612Z,90.60
2022-12-14T22:28:22.899Z,87.30
2022-12-14T22:31:02.574Z,87.70
2022-12-14T22:33:36.068Z,88.80
2022-12-14T22:36:06.181Z,85.60
2022-12-14T22:38:39.647Z,85.40
2022-12-14T22:41:08.659Z,86.00
2022-12-14T22:43:41.639Z,86.30
2022-12-14T22:46:12.443Z,84.10
2022-12-14T22:48:43.072Z,85.60
2022-12-14T22:51:15.436Z,86.50
2022-12-14T22:53:44.935Z,86.30
2022-12-14T22:56:21.230Z,85.70
2022-12-14T22:58:55.363Z,85.90
2022-12-14T23:01:23.655Z,84.70
2022-12-14T23:03:53.276Z,85.20
2022-12-14T23:06:24.990Z,84.40
2022-12-14T23:09:10.769Z,82.60
2022-12-14T23:11:56.334Z,83.30
2022-12-14T23:14:42.222Z,83.70
2022-12-14T23:17:27.821Z,85.10
2022-12-14T23:20:13.618Z,83.80
2022-12-14T23:23:00.814Z,82.20
2022-12-14T23:25:46.385Z,82.90
2022-12-14T23:28:32.063Z,82.40
2022-12-14T23:31:18.154Z,81.90
2022-12-14T23:34:03.733Z,81.60
2022-12-14T23:36:49.325Z,81.90
2022-12-14T23:39:36.672Z,83.40
2022-12-14T23:42:22.963Z,83.30
2022-12-14T23:45:08.608Z,83.10
2022-12-14T23:47:54.317Z,83.20
2022-12-14T23:50:39.665Z,84.20
2022-12-14T23:53:25.597Z,82.40
2022-12-14T23:56:12.778Z,83.40
2022-12-14T23:58:58.435Z,82.80
